sensor_id;sensor_type;location;lat;lon;timestamp;temperature;humidity
20479;DHT22;10398;52.490;13.434;2024-01-30T00:01:15;6.20;99.90
20479;DHT22;10398;52.490;13.434;2024-01-30T00:03:41;6.20;99.90
20479;DHT22;10398;52.490;13.434;2024-01-30T00:06:07;6.20;99.90
20479;DHT22;10398;52.490;13.434;2024-01-30T00:08:33;6.20;99.90
20479;DHT22;10398;52.490;13.434;2024-01-30T00:10:59;6.30;99.90
20479;DHT22;10398;52.490;13.434;2024-01-30T00:13:25;6.30;99.90
20479;DHT22;10398;52.490;13.434;2024-01-30T00:15:50;6.30;99.90
20479;DHT22;10398;52.490;13.434;2024-01-30T00:18:16;6.30;99.90
20479;DHT22;10398;52.490;13.434;2024-01-30T00:20:42;6.20;99.90
20479;DHT22;10398;52.490;13.434;2024-01-30T00:23:08;6.20;99.90
20479;DHT22;10398;52.490;13.434;2024-01-30T00:25:34;6.10;99.90
20479;DHT22;10398;52.490;13.434;2024-01-30T00:28:00;6.10;99.90
20479;DHT22;10398;52.490;13.434;2024-01-30T00:30:25;6.00;99.90
20479;DHT22;10398;52.490;13.434;2024-01-30T00:32:51;6.00;99.90
20479;DHT22;10398;52.490;13.434;2024-01-30T00:35:16;6.00;99.90
20479;DHT22;10398;52.490;13.434;2024-01-30T00:37:42;6.00;99.90
20479;DHT22;10398;52.490;13.434;2024-01-30T00:40:08;5.90;99.90
20479;DHT22;10398;52.490;13.434;2024-01-30T00:42:39;5.90;99.90
20479;DHT22;10398;52.490;13.434;2024-01-30T00:45:05;5.90;99.90
20479;DHT22;10398;52.490;13.434;2024-01-30T00:47:31;5.80;99.90
20479;DHT22;10398;52.490;13.434;2024-01-30T00:49:58;5.90;99.90
20479;DHT22;10398;52.490;13.434;2024-01-30T00:52:24;5.90;99.90
20479;DHT22;10398;52.490;13.434;2024-01-30T00:54:49;5.90;99.90
20479;DHT22;10398;52.490;13.434;2024-01-30T00:57:15;5.90;99.90
20479;DHT22;10398;52.490;13.434;2024-01-30T00:59:40;5.90;99.90
20479;DHT22;10398;52.490;13.434;2024-01-30T01:02:06;5.90;99.90
20479;DHT22;10398;52.490;13.434;2024-01-30T01:04:32;5.80;99.90
20479;DHT22;10398;52.490;13.434;2024-01-30T01:07:03;5.80;99.90
20479;DHT22;10398;52.490;13.434;2024-01-30T01:09:29;5.80;99.90
20479;DHT22;10398;52.490;13.434;2024-01-30T01:11:58;5.70;99.90
20479;DHT22;10398;52.490;13.434;2024-01-30T01:14:23;5.60;99.90
20479;DHT22;10398;52.490;13.434;2024-01-30T01:16:49;5.60;99.90
20479;DHT22;10398;52.490;13.434;2024-01-30T01:19:14;5.50;99.90
20479;DHT22;10398;52.490;13.434;2024-01-30T01:21:40;5.50;99.90
20479;DHT22;10398;52.490;13.434;2024-01-30T01:24:06;5.50;99.90
20479;DHT22;10398;52.490;13.434;2024-01-30T01:26:31;5.50;99.90
20479;DHT22;10398;52.490;13.434;2024-01-30T01:28:57;5.50;99.90
20479;DHT22;10398;52.490;13.434;2024-01-30T01:31:23;5.50;99.90
20479;DHT22;10398;52.490;13.434;2024-01-30T01:33:50;5.50;99.90
20479;DHT22;10398;52.490;13.434;2024-01-30T01:36:16;5.40;99.90
20479;DHT22;10398;52.490;13.434;2024-01-30T01:38:41;5.40;99.90
20479;DHT22;10398;52.490;13.434;2024-01-30T01:41:07;5.50;99.90
20479;DHT22;10398;52.490;13.434;2024-01-30T01:43:38;5.40;99.90
20479;DHT22;10398;52.490;13.434;2024-01-30T01:46:06;5.50;99.90
20479;DHT22;10398;52.490;13.434;2024-01-30T01:48:32;5.50;99.90
20479;DHT22;10398;52.490;13.434;2024-01-30T01:50:59;5.40;99.90
20479;DHT22;10398;52.490;13.434;2024-01-30T01:53:25;5.30;99.90
20479;DHT22;10398;52.490;13.434;2024-01-30T01:55:51;5.30;99.90
20479;DHT22;10398;52.490;13.434;2024-01-30T01:58:19;5.20;99.90
20479;DHT22;10398;52.490;13.434;2024-01-30T02:00:46;5.20;99.90
20479;DHT22;10398;52.490;13.434;2024-01-30T02:03:13;5.20;99.90
20479;DHT22;10398;52.490;13.434;2024-01-30T02:05:44;5.30;99.90
20479;DHT22;10398;52.490;13.434;2024-01-30T02:08:09;5.20;99.90
20479;DHT22;10398;52.490;13.434;2024-01-30T02:10:35;5.20;99.90
20479;DHT22;10398;52.490;13.434;2024-01-30T02:13:01;5.10;99.90
20479;DHT22;10398;52.490;13.434;2024-01-30T02:15:26;5.10;99.90
20479;DHT22;10398;52.490;13.434;2024-01-30T02:17:52;5.10;99.90
20479;DHT22;10398;52.490;13.434;2024-01-30T02:20:18;5.20;99.90
20479;DHT22;10398;52.490;13.434;2024-01-30T02:22:44;5.30;99.90
20479;DHT22;10398;52.490;13.434;2024-01-30T02:25:10;5.30;99.90
20479;DHT22;10398;52.490;13.434;2024-01-30T02:27:36;5.40;99.90
20479;DHT22;10398;52.490;13.434;2024-01-30T02:30:01;5.50;99.90
20479;DHT22;10398;52.490;13.434;2024-01-30T02:32:27;5.40;99.90
20479;DHT22;10398;52.490;13.434;2024-01-30T02:34:52;5.20;99.90
20479;DHT22;10398;52.490;13.434;2024-01-30T02:37:18;5.20;99.90
20479;DHT22;10398;52.490;13.434;2024-01-30T02:39:44;5.30;99.90
20479;DHT22;10398;52.490;13.434;2024-01-30T02:42:09;5.30;99.90
20479;DHT22;10398;52.490;13.434;2024-01-30T02:44:35;5.30;99.90
20479;DHT22;10398;52.490;13.434;2024-01-30T02:47:01;5.30;99.90
20479;DHT22;10398;52.490;13.434;2024-01-30T02:49:26;5.30;99.90
20479;DHT22;10398;52.490;13.434;2024-01-30T02:51:55;5.30;99.90
20479;DHT22;10398;52.490;13.434;2024-01-30T02:54:22;5.40;99.90
20479;DHT22;10398;52.490;13.434;2024-01-30T02:56:47;5.30;99.90
20479;DHT22;10398;52.490;13.434;2024-01-30T02:59:13;5.40;99.90
20479;DHT22;10398;52.490;13.434;2024-01-30T03:01:43;5.40;99.90
20479;DHT22;10398;52.490;13.434;2024-01-30T03:04:09;5.40;99.90
20479;DHT22;10398;52.490;13.434;2024-01-30T03:06:35;5.40;99.90
20479;DHT22;10398;52.490;13.434;2024-01-30T03:09:01;5.30;99.90
20479;DHT22;10398;52.490;13.434;2024-01-30T03:11:26;5.30;99.90
20479;DHT22;10398;52.490;13.434;2024-01-30T03:13:52;5.30;99.90
20479;DHT22;10398;52.490;13.434;2024-01-30T03:16:17;5.20;99.90
20479;DHT22;10398;52.490;13.434;2024-01-30T03:18:43;5.30;99.90
20479;DHT22;10398;52.490;13.434;2024-01-30T03:21:09;5.30;99.90
20479;DHT22;10398;52.490;13.434;2024-01-30T03:23:34;5.20;99.90
20479;DHT22;10398;52.490;13.434;2024-01-30T03:26:00;5.40;99.90
20479;DHT22;10398;52.490;13.434;2024-01-30T03:28:26;5.30;99.90
20479;DHT22;10398;52.490;13.434;2024-01-30T03:30:52;5.30;99.90
20479;DHT22;10398;52.490;13.434;2024-01-30T03:33:17;5.30;99.90
20479;DHT22;10398;52.490;13.434;2024-01-30T03:35:43;5.30;99.90
20479;DHT22;10398;52.490;13.434;2024-01-30T03:38:09;5.30;99.90
20479;DHT22;10398;52.490;13.434;2024-01-30T03:40:37;5.30;99.90
20479;DHT22;10398;52.490;13.434;2024-01-30T03:43:03;5.30;99.90
20479;DHT22;10398;52.490;13.434;2024-01-30T03:45:30;5.30;99.90
20479;DHT22;10398;52.490;13.434;2024-01-30T03:47:56;5.30;99.90
20479;DHT22;10398;52.490;13.434;2024-01-30T03:50:21;5.30;99.90
20479;DHT22;10398;52.490;13.434;2024-01-30T03:52:47;5.20;99.90
20479;DHT22;10398;52.490;13.434;2024-01-30T03:55:12;5.20;99.90
20479;DHT22;10398;52.490;13.434;2024-01-30T03:57:38;5.10;99.90
20479;DHT22;10398;52.490;13.434;2024-01-30T04:00:04;5.10;99.90
20479;DHT22;10398;52.490;13.434;2024-01-30T04:02:30;5.20;99.90
20479;DHT22;10398;52.490;13.434;2024-01-30T04:04:56;5.30;99.90
20479;DHT22;10398;52.490;13.434;2024-01-30T04:07:21;5.20;99.90
20479;DHT22;10398;52.490;13.434;2024-01-30T04:09:47;5.20;99.90
20479;DHT22;10398;52.490;13.434;2024-01-30T04:12:12;5.10;99.90
20479;DHT22;10398;52.490;13.434;2024-01-30T04:14:39;5.10;99.90
20479;DHT22;10398;52.490;13.434;2024-01-30T04:17:04;5.10;99.90
20479;DHT22;10398;52.490;13.434;2024-01-30T04:19:30;5.10;99.90
20479;DHT22;10398;52.490;13.434;2024-01-30T04:21:55;5.10;99.90
20479;DHT22;10398;52.490;13.434;2024-01-30T04:24:21;5.20;99.90
20479;DHT22;10398;52.490;13.434;2024-01-30T04:26:47;5.10;99.90
20479;DHT22;10398;52.490;13.434;2024-01-30T04:29:12;5.20;99.90
20479;DHT22;10398;52.490;13.434;2024-01-30T04:31:38;5.30;99.90
20479;DHT22;10398;52.490;13.434;2024-01-30T04:34:04;5.30;99.90
20479;DHT22;10398;52.490;13.434;2024-01-30T04:36:30;5.20;99.90
20479;DHT22;10398;52.490;13.434;2024-01-30T04:38:55;5.30;99.90
20479;DHT22;10398;52.490;13.434;2024-01-30T04:41:21;5.20;99.90
20479;DHT22;10398;52.490;13.434;2024-01-30T04:43:46;5.20;99.90
20479;DHT22;10398;52.490;13.434;2024-01-30T04:46:12;5.20;99.90
20479;DHT22;10398;52.490;13.434;2024-01-30T04:48:38;5.20;99.90
20479;DHT22;10398;52.490;13.434;2024-01-30T04:51:03;5.20;99.90
20479;DHT22;10398;52.490;13.434;2024-01-30T04:53:30;5.10;99.90
20479;DHT22;10398;52.490;13.434;2024-01-30T04:55:56;5.10;99.90
20479;DHT22;10398;52.490;13.434;2024-01-30T04:58:22;5.10;99.90
20479;DHT22;10398;52.490;13.434;2024-01-30T05:00:47;5.10;99.90
20479;DHT22;10398;52.490;13.434;2024-01-30T05:03:17;5.00;99.90
20479;DHT22;10398;52.490;13.434;2024-01-30T05:05:43;5.00;99.90
20479;DHT22;10398;52.490;13.434;2024-01-30T05:08:08;5.00;99.90
20479;DHT22;10398;52.490;13.434;2024-01-30T05:10:34;5.00;99.90
20479;DHT22;10398;52.490;13.434;2024-01-30T05:12:59;5.00;99.90
20479;DHT22;10398;52.490;13.434;2024-01-30T05:15:25;5.10;99.90
20479;DHT22;10398;52.490;13.434;2024-01-30T05:17:51;5.00;99.90
20479;DHT22;10398;52.490;13.434;2024-01-30T05:20:17;4.90;99.90
20479;DHT22;10398;52.490;13.434;2024-01-30T05:22:43;5.00;99.90
20479;DHT22;10398;52.490;13.434;2024-01-30T05:25:11;5.00;99.90
20479;DHT22;10398;52.490;13.434;2024-01-30T05:27:37;5.10;99.90
20479;DHT22;10398;52.490;13.434;2024-01-30T05:30:05;5.10;99.90
20479;DHT22;10398;52.490;13.434;2024-01-30T05:32:31;5.00;99.90
20479;DHT22;10398;52.490;13.434;2024-01-30T05:34:57;4.90;99.90
20479;DHT22;10398;52.490;13.434;2024-01-30T05:37:22;4.90;99.90
20479;DHT22;10398;52.490;13.434;2024-01-30T05:39:48;4.90;99.90
20479;DHT22;10398;52.490;13.434;2024-01-30T05:42:14;4.90;99.90
20479;DHT22;10398;52.490;13.434;2024-01-30T05:44:42;4.90;99.90
20479;DHT22;10398;52.490;13.434;2024-01-30T05:47:08;5.00;99.90
20479;DHT22;10398;52.490;13.434;2024-01-30T05:49:33;4.90;99.90
20479;DHT22;10398;52.490;13.434;2024-01-30T05:52:01;5.00;99.90
20479;DHT22;10398;52.490;13.434;2024-01-30T05:54:27;4.90;99.90
20479;DHT22;10398;52.490;13.434;2024-01-30T05:56:53;4.90;99.90
20479;DHT22;10398;52.490;13.434;2024-01-30T05:59:18;5.00;99.90
20479;DHT22;10398;52.490;13.434;2024-01-30T06:01:47;5.00;99.90
20479;DHT22;10398;52.490;13.434;2024-01-30T06:04:13;5.00;99.90
20479;DHT22;10398;52.490;13.434;2024-01-30T06:06:39;5.00;99.90
20479;DHT22;10398;52.490;13.434;2024-01-30T06:09:05;4.90;99.90
20479;DHT22;10398;52.490;13.434;2024-01-30T06:11:31;5.00;99.90
20479;DHT22;10398;52.490;13.434;2024-01-30T06:13:56;5.00;99.90
20479;DHT22;10398;52.490;13.434;2024-01-30T06:16:22;5.00;99.90
20479;DHT22;10398;52.490;13.434;2024-01-30T06:18:48;5.00;99.90
20479;DHT22;10398;52.490;13.434;2024-01-30T06:21:14;5.00;99.90
20479;DHT22;10398;52.490;13.434;2024-01-30T06:23:39;5.00;99.90
20479;DHT22;10398;52.490;13.434;2024-01-30T06:26:07;4.90;99.90
20479;DHT22;10398;52.490;13.434;2024-01-30T06:28:32;4.90;99.90
20479;DHT22;10398;52.490;13.434;2024-01-30T06:30:58;4.90;99.90
20479;DHT22;10398;52.490;13.434;2024-01-30T06:33:26;4.90;99.90
20479;DHT22;10398;52.490;13.434;2024-01-30T06:35:51;4.90;99.90
20479;DHT22;10398;52.490;13.434;2024-01-30T06:38:17;4.90;99.90
20479;DHT22;10398;52.490;13.434;2024-01-30T06:40:42;4.90;99.90
20479;DHT22;10398;52.490;13.434;2024-01-30T06:43:08;4.90;99.90
20479;DHT22;10398;52.490;13.434;2024-01-30T06:45:34;5.00;99.90
20479;DHT22;10398;52.490;13.434;2024-01-30T06:48:00;5.00;99.90
20479;DHT22;10398;52.490;13.434;2024-01-30T06:50:26;5.00;99.90
20479;DHT22;10398;52.490;13.434;2024-01-30T06:52:51;5.00;99.90
20479;DHT22;10398;52.490;13.434;2024-01-30T06:55:18;4.90;99.90
20479;DHT22;10398;52.490;13.434;2024-01-30T06:57:43;5.00;99.90
20479;DHT22;10398;52.490;13.434;2024-01-30T07:00:10;5.00;99.90
20479;DHT22;10398;52.490;13.434;2024-01-30T07:02:35;4.90;99.90
20479;DHT22;10398;52.490;13.434;2024-01-30T07:05:02;5.00;99.90
20479;DHT22;10398;52.490;13.434;2024-01-30T07:07:28;5.10;99.90
20479;DHT22;10398;52.490;13.434;2024-01-30T07:09:54;5.10;99.90
20479;DHT22;10398;52.490;13.434;2024-01-30T07:12:22;5.10;99.90
20479;DHT22;10398;52.490;13.434;2024-01-30T07:14:50;5.00;99.90
20479;DHT22;10398;52.490;13.434;2024-01-30T07:17:15;5.10;99.90
20479;DHT22;10398;52.490;13.434;2024-01-30T07:19:41;5.20;99.90
20479;DHT22;10398;52.490;13.434;2024-01-30T07:22:08;5.30;99.90
20479;DHT22;10398;52.490;13.434;2024-01-30T07:24:34;5.30;99.90
20479;DHT22;10398;52.490;13.434;2024-01-30T07:27:00;5.20;99.90
20479;DHT22;10398;52.490;13.434;2024-01-30T07:29:25;5.20;99.90
20479;DHT22;10398;52.490;13.434;2024-01-30T07:31:51;5.20;99.90
20479;DHT22;10398;52.490;13.434;2024-01-30T07:34:17;5.30;99.90
20479;DHT22;10398;52.490;13.434;2024-01-30T07:36:45;5.30;99.90
20479;DHT22;10398;52.490;13.434;2024-01-30T07:39:12;5.40;99.90
20479;DHT22;10398;52.490;13.434;2024-01-30T07:41:38;5.40;99.90
20479;DHT22;10398;52.490;13.434;2024-01-30T07:44:03;5.40;99.90
20479;DHT22;10398;52.490;13.434;2024-01-30T07:46:29;5.50;99.90
20479;DHT22;10398;52.490;13.434;2024-01-30T07:48:55;5.50;99.90
20479;DHT22;10398;52.490;13.434;2024-01-30T07:51:22;5.30;99.90
20479;DHT22;10398;52.490;13.434;2024-01-30T07:53:48;5.20;99.90
20479;DHT22;10398;52.490;13.434;2024-01-30T07:56:13;5.10;99.90
20479;DHT22;10398;52.490;13.434;2024-01-30T07:58:39;5.20;99.90
20479;DHT22;10398;52.490;13.434;2024-01-30T08:01:04;5.30;99.90
20479;DHT22;10398;52.490;13.434;2024-01-30T08:03:30;5.40;99.90
20479;DHT22;10398;52.490;13.434;2024-01-30T08:05:55;5.40;99.90
20479;DHT22;10398;52.490;13.434;2024-01-30T08:08:21;5.50;99.90
20479;DHT22;10398;52.490;13.434;2024-01-30T08:10:47;5.50;99.90
20479;DHT22;10398;52.490;13.434;2024-01-30T08:13:14;5.50;99.90
20479;DHT22;10398;52.490;13.434;2024-01-30T08:15:40;5.50;99.90
20479;DHT22;10398;52.490;13.434;2024-01-30T08:18:05;5.50;99.90
20479;DHT22;10398;52.490;13.434;2024-01-30T08:20:32;5.60;99.90
20479;DHT22;10398;52.490;13.434;2024-01-30T08:22:58;5.70;99.90
20479;DHT22;10398;52.490;13.434;2024-01-30T08:25:25;5.70;99.90
20479;DHT22;10398;52.490;13.434;2024-01-30T08:27:51;5.80;99.90
20479;DHT22;10398;52.490;13.434;2024-01-30T08:30:18;5.70;99.90
20479;DHT22;10398;52.490;13.434;2024-01-30T08:32:44;5.80;99.90
20479;DHT22;10398;52.490;13.434;2024-01-30T08:35:10;5.90;99.90
20479;DHT22;10398;52.490;13.434;2024-01-30T08:37:39;5.80;99.90
20479;DHT22;10398;52.490;13.434;2024-01-30T08:40:05;5.90;99.90
20479;DHT22;10398;52.490;13.434;2024-01-30T08:42:32;5.90;99.90
20479;DHT22;10398;52.490;13.434;2024-01-30T08:44:58;6.00;99.90
20479;DHT22;10398;52.490;13.434;2024-01-30T08:47:24;6.10;99.90
20479;DHT22;10398;52.490;13.434;2024-01-30T08:49:50;6.20;99.90
20479;DHT22;10398;52.490;13.434;2024-01-30T08:52:16;6.30;99.90
20479;DHT22;10398;52.490;13.434;2024-01-30T08:54:43;6.40;99.90
20479;DHT22;10398;52.490;13.434;2024-01-30T08:57:09;6.50;99.90
20479;DHT22;10398;52.490;13.434;2024-01-30T08:59:34;6.60;99.90
20479;DHT22;10398;52.490;13.434;2024-01-30T09:02:00;6.60;99.90
20479;DHT22;10398;52.490;13.434;2024-01-30T09:04:25;6.70;99.90
20479;DHT22;10398;52.490;13.434;2024-01-30T09:06:51;6.80;99.90
20479;DHT22;10398;52.490;13.434;2024-01-30T09:09:17;6.80;99.90
20479;DHT22;10398;52.490;13.434;2024-01-30T09:11:45;6.80;99.90
20479;DHT22;10398;52.490;13.434;2024-01-30T09:14:11;6.70;99.90
20479;DHT22;10398;52.490;13.434;2024-01-30T09:16:37;7.00;99.90
20479;DHT22;10398;52.490;13.434;2024-01-30T09:19:03;7.10;99.90
20479;DHT22;10398;52.490;13.434;2024-01-30T09:21:28;7.10;99.90
20479;DHT22;10398;52.490;13.434;2024-01-30T09:23:54;7.00;99.90
20479;DHT22;10398;52.490;13.434;2024-01-30T09:26:20;7.00;99.90
20479;DHT22;10398;52.490;13.434;2024-01-30T09:28:46;7.00;99.90
20479;DHT22;10398;52.490;13.434;2024-01-30T09:31:12;7.00;99.90
20479;DHT22;10398;52.490;13.434;2024-01-30T09:33:38;7.00;99.90
20479;DHT22;10398;52.490;13.434;2024-01-30T09:36:05;7.00;99.90
20479;DHT22;10398;52.490;13.434;2024-01-30T09:38:33;7.00;99.90
20479;DHT22;10398;52.490;13.434;2024-01-30T09:41:03;7.20;99.90
20479;DHT22;10398;52.490;13.434;2024-01-30T09:43:33;7.10;99.90
20479;DHT22;10398;52.490;13.434;2024-01-30T09:46:02;7.20;99.90
20479;DHT22;10398;52.490;13.434;2024-01-30T09:48:30;7.20;99.90
20479;DHT22;10398;52.490;13.434;2024-01-30T09:50:57;7.20;99.90
20479;DHT22;10398;52.490;13.434;2024-01-30T09:53:23;7.10;99.90
20479;DHT22;10398;52.490;13.434;2024-01-30T09:55:50;7.30;99.90
20479;DHT22;10398;52.490;13.434;2024-01-30T09:58:16;7.30;99.90
20479;DHT22;10398;52.490;13.434;2024-01-30T10:00:42;7.30;99.90
20479;DHT22;10398;52.490;13.434;2024-01-30T10:03:09;7.50;99.90
20479;DHT22;10398;52.490;13.434;2024-01-30T10:05:36;7.50;99.90
20479;DHT22;10398;52.490;13.434;2024-01-30T10:08:06;7.70;99.90
20479;DHT22;10398;52.490;13.434;2024-01-30T10:10:33;7.80;99.90
20479;DHT22;10398;52.490;13.434;2024-01-30T10:13:00;7.90;99.90
20479;DHT22;10398;52.490;13.434;2024-01-30T10:15:26;8.10;99.90
20479;DHT22;10398;52.490;13.434;2024-01-30T10:17:53;8.20;99.90
20479;DHT22;10398;52.490;13.434;2024-01-30T10:20:19;8.30;99.90
20479;DHT22;10398;52.490;13.434;2024-01-30T10:22:45;8.30;99.90
20479;DHT22;10398;52.490;13.434;2024-01-30T10:25:11;8.40;99.90
20479;DHT22;10398;52.490;13.434;2024-01-30T10:27:39;8.50;99.90
20479;DHT22;10398;52.490;13.434;2024-01-30T10:30:05;8.50;99.90
20479;DHT22;10398;52.490;13.434;2024-01-30T10:32:31;8.60;99.90
20479;DHT22;10398;52.490;13.434;2024-01-30T10:34:56;8.60;99.90
20479;DHT22;10398;52.490;13.434;2024-01-30T10:37:25;8.60;99.90
20479;DHT22;10398;52.490;13.434;2024-01-30T10:39:53;8.50;99.90
20479;DHT22;10398;52.490;13.434;2024-01-30T10:42:21;8.50;99.90
20479;DHT22;10398;52.490;13.434;2024-01-30T10:47:27;8.70;99.90
20479;DHT22;10398;52.490;13.434;2024-01-30T10:49:54;8.70;99.90
20479;DHT22;10398;52.490;13.434;2024-01-30T10:52:21;8.70;99.90
20479;DHT22;10398;52.490;13.434;2024-01-30T10:54:50;8.80;99.90
20479;DHT22;10398;52.490;13.434;2024-01-30T10:57:17;8.90;99.90
20479;DHT22;10398;52.490;13.434;2024-01-30T10:59:43;9.00;99.90
20479;DHT22;10398;52.490;13.434;2024-01-30T11:02:10;9.10;99.90
20479;DHT22;10398;52.490;13.434;2024-01-30T11:04:41;9.10;99.90
20479;DHT22;10398;52.490;13.434;2024-01-30T11:07:16;9.10;99.90
20479;DHT22;10398;52.490;13.434;2024-01-30T11:10:12;9.30;99.90
20479;DHT22;10398;52.490;13.434;2024-01-30T11:12:40;9.30;99.90
20479;DHT22;10398;52.490;13.434;2024-01-30T11:15:11;9.30;99.90
20479;DHT22;10398;52.490;13.434;2024-01-30T11:17:50;9.40;99.90
20479;DHT22;10398;52.490;13.434;2024-01-30T11:22:47;9.50;99.90
20479;DHT22;10398;52.490;13.434;2024-01-30T11:25:17;9.50;99.90
20479;DHT22;10398;52.490;13.434;2024-01-30T11:27:44;9.40;99.90
20479;DHT22;10398;52.490;13.434;2024-01-30T11:30:10;9.40;99.90
20479;DHT22;10398;52.490;13.434;2024-01-30T11:32:36;9.40;99.90
20479;DHT22;10398;52.490;13.434;2024-01-30T11:35:05;9.40;99.90
20479;DHT22;10398;52.490;13.434;2024-01-30T11:37:32;9.30;99.90
20479;DHT22;10398;52.490;13.434;2024-01-30T11:39:59;9.30;99.90
20479;DHT22;10398;52.490;13.434;2024-01-30T11:42:26;9.40;99.90
20479;DHT22;10398;52.490;13.434;2024-01-30T11:44:52;9.40;99.90
20479;DHT22;10398;52.490;13.434;2024-01-30T11:47:18;9.40;99.90
20479;DHT22;10398;52.490;13.434;2024-01-30T11:49:44;9.50;99.90
20479;DHT22;10398;52.490;13.434;2024-01-30T11:52:10;9.40;99.90
20479;DHT22;10398;52.490;13.434;2024-01-30T11:54:39;9.50;99.90
20479;DHT22;10398;52.490;13.434;2024-01-30T11:57:05;9.50;99.90
20479;DHT22;10398;52.490;13.434;2024-01-30T11:59:31;9.60;99.90
20479;DHT22;10398;52.490;13.434;2024-01-30T12:01:56;9.60;99.90
20479;DHT22;10398;52.490;13.434;2024-01-30T12:04:22;9.60;99.90
20479;DHT22;10398;52.490;13.434;2024-01-30T12:06:51;9.60;99.90
20479;DHT22;10398;52.490;13.434;2024-01-30T12:09:17;9.60;99.90
20479;DHT22;10398;52.490;13.434;2024-01-30T12:11:46;9.70;99.90
20479;DHT22;10398;52.490;13.434;2024-01-30T12:14:12;9.80;99.90
20479;DHT22;10398;52.490;13.434;2024-01-30T12:16:38;9.90;99.90
20479;DHT22;10398;52.490;13.434;2024-01-30T12:19:04;10.00;99.90
20479;DHT22;10398;52.490;13.434;2024-01-30T12:21:30;10.10;99.90
20479;DHT22;10398;52.490;13.434;2024-01-30T12:23:59;10.20;99.90
20479;DHT22;10398;52.490;13.434;2024-01-30T12:26:25;10.20;99.90
20479;DHT22;10398;52.490;13.434;2024-01-30T12:28:54;10.20;99.90
20479;DHT22;10398;52.490;13.434;2024-01-30T12:31:32;10.20;99.90
20479;DHT22;10398;52.490;13.434;2024-01-30T12:34:00;10.00;99.90
20479;DHT22;10398;52.490;13.434;2024-01-30T12:36:26;9.90;99.90
20479;DHT22;10398;52.490;13.434;2024-01-30T12:38:51;9.90;99.90
20479;DHT22;10398;52.490;13.434;2024-01-30T12:41:17;10.00;99.90
20479;DHT22;10398;52.490;13.434;2024-01-30T12:43:43;9.90;99.90
20479;DHT22;10398;52.490;13.434;2024-01-30T12:46:09;9.90;99.90
20479;DHT22;10398;52.490;13.434;2024-01-30T12:48:35;10.00;99.90
20479;DHT22;10398;52.490;13.434;2024-01-30T12:51:01;10.10;99.90
20479;DHT22;10398;52.490;13.434;2024-01-30T12:53:27;10.10;99.90
20479;DHT22;10398;52.490;13.434;2024-01-30T12:55:52;10.00;99.90
20479;DHT22;10398;52.490;13.434;2024-01-30T12:58:19;9.80;99.90
20479;DHT22;10398;52.490;13.434;2024-01-30T13:00:45;9.70;99.90
20479;DHT22;10398;52.490;13.434;2024-01-30T13:03:12;9.80;99.90
20479;DHT22;10398;52.490;13.434;2024-01-30T13:05:38;9.70;99.90
20479;DHT22;10398;52.490;13.434;2024-01-30T13:08:04;9.80;99.90
20479;DHT22;10398;52.490;13.434;2024-01-30T13:10:29;9.90;99.90
20479;DHT22;10398;52.490;13.434;2024-01-30T13:12:55;10.00;99.90
20479;DHT22;10398;52.490;13.434;2024-01-30T13:15:20;10.00;99.90
20479;DHT22;10398;52.490;13.434;2024-01-30T13:17:48;10.00;99.90
20479;DHT22;10398;52.490;13.434;2024-01-30T13:20:14;10.00;99.90
20479;DHT22;10398;52.490;13.434;2024-01-30T13:22:44;9.90;99.90
20479;DHT22;10398;52.490;13.434;2024-01-30T13:25:10;9.90;99.90
20479;DHT22;10398;52.490;13.434;2024-01-30T13:27:37;9.90;99.90
20479;DHT22;10398;52.490;13.434;2024-01-30T13:30:03;10.00;99.90
20479;DHT22;10398;52.490;13.434;2024-01-30T13:32:29;9.90;99.90
20479;DHT22;10398;52.490;13.434;2024-01-30T13:34:54;9.80;99.90
20479;DHT22;10398;52.490;13.434;2024-01-30T13:37:21;9.70;99.90
20479;DHT22;10398;52.490;13.434;2024-01-30T13:39:46;9.80;99.90
20479;DHT22;10398;52.490;13.434;2024-01-30T13:42:12;9.70;99.90
20479;DHT22;10398;52.490;13.434;2024-01-30T13:44:38;9.70;99.90
20479;DHT22;10398;52.490;13.434;2024-01-30T13:47:03;9.80;99.90
20479;DHT22;10398;52.490;13.434;2024-01-30T13:49:29;9.80;99.90
20479;DHT22;10398;52.490;13.434;2024-01-30T13:51:55;9.90;99.90
20479;DHT22;10398;52.490;13.434;2024-01-30T13:54:20;9.90;99.90
20479;DHT22;10398;52.490;13.434;2024-01-30T13:56:46;10.00;99.90
20479;DHT22;10398;52.490;13.434;2024-01-30T13:59:11;10.00;99.90
20479;DHT22;10398;52.490;13.434;2024-01-30T14:01:37;10.10;99.90
20479;DHT22;10398;52.490;13.434;2024-01-30T14:04:03;10.10;99.90
20479;DHT22;10398;52.490;13.434;2024-01-30T14:06:28;10.10;99.90
20479;DHT22;10398;52.490;13.434;2024-01-30T14:08:54;10.10;99.90
20479;DHT22;10398;52.490;13.434;2024-01-30T14:11:20;10.20;99.90
20479;DHT22;10398;52.490;13.434;2024-01-30T14:13:46;10.20;99.90
20479;DHT22;10398;52.490;13.434;2024-01-30T14:16:12;10.10;99.90
20479;DHT22;10398;52.490;13.434;2024-01-30T14:18:37;10.20;99.90
20479;DHT22;10398;52.490;13.434;2024-01-30T14:21:03;10.20;99.90
20479;DHT22;10398;52.490;13.434;2024-01-30T14:23:29;10.20;99.90
20479;DHT22;10398;52.490;13.434;2024-01-30T14:25:54;10.20;99.90
20479;DHT22;10398;52.490;13.434;2024-01-30T14:28:20;10.20;99.90
20479;DHT22;10398;52.490;13.434;2024-01-30T14:30:46;10.20;99.90
20479;DHT22;10398;52.490;13.434;2024-01-30T14:33:12;10.20;99.90
20479;DHT22;10398;52.490;13.434;2024-01-30T14:35:38;10.10;99.90
20479;DHT22;10398;52.490;13.434;2024-01-30T14:38:04;10.00;99.90
20479;DHT22;10398;52.490;13.434;2024-01-30T14:40:30;10.00;99.90
20479;DHT22;10398;52.490;13.434;2024-01-30T14:42:56;10.00;99.90
20479;DHT22;10398;52.490;13.434;2024-01-30T14:45:22;10.10;99.90
20479;DHT22;10398;52.490;13.434;2024-01-30T14:47:47;10.10;99.90
20479;DHT22;10398;52.490;13.434;2024-01-30T14:50:13;10.10;99.90
20479;DHT22;10398;52.490;13.434;2024-01-30T14:52:42;10.10;99.90
20479;DHT22;10398;52.490;13.434;2024-01-30T14:55:07;9.90;99.90
20479;DHT22;10398;52.490;13.434;2024-01-30T14:57:34;9.90;99.90
20479;DHT22;10398;52.490;13.434;2024-01-30T15:00:00;9.80;99.90
20479;DHT22;10398;52.490;13.434;2024-01-30T15:02:26;9.80;99.90
20479;DHT22;10398;52.490;13.434;2024-01-30T15:04:51;9.70;99.90
20479;DHT22;10398;52.490;13.434;2024-01-30T15:07:18;9.70;99.90
20479;DHT22;10398;52.490;13.434;2024-01-30T15:09:44;9.70;99.90
20479;DHT22;10398;52.490;13.434;2024-01-30T15:12:09;9.70;99.90
20479;DHT22;10398;52.490;13.434;2024-01-30T15:14:35;9.70;99.90
20479;DHT22;10398;52.490;13.434;2024-01-30T15:17:01;9.70;99.90
20479;DHT22;10398;52.490;13.434;2024-01-30T15:19:27;9.70;99.90
20479;DHT22;10398;52.490;13.434;2024-01-30T15:21:52;9.70;99.90
20479;DHT22;10398;52.490;13.434;2024-01-30T15:24:18;9.70;99.90
20479;DHT22;10398;52.490;13.434;2024-01-30T15:26:46;9.80;99.90
20479;DHT22;10398;52.490;13.434;2024-01-30T15:29:11;9.80;99.90